createdAt,value
2023-03-26T00:02:23.618Z,73.88
2023-03-26T00:12:23.673Z,75.25
2023-03-26T00:22:23.895Z,76.01
2023-03-26T00:32:24.104Z,72.00
2023-03-26T00:42:24.324Z,73.47
2023-03-26T00:52:24.522Z,73.71
2023-03-26T01:02:24.822Z,75.08
2023-03-26T01:12:24.809Z,74.98
2023-03-26T01:22:25.005Z,74.33
2023-03-26T01:32:25.276Z,73.71
2023-03-26T01:42:25.472Z,71.82
2023-03-26T01:52:25.672Z,71.92
2023-03-26T02:02:26.035Z,71.41
2023-03-26T02:12:26.123Z,72.24
2023-03-26T02:22:26.329Z,72.47
2023-03-26T02:32:27.960Z,72.16
2023-03-26T02:42:26.781Z,71.24
2023-03-26T02:52:26.940Z,73.54
2023-03-26T03:02:27.206Z,74.60
2023-03-26T03:12:27.388Z,76.39
2023-03-26T03:22:27.586Z,76.70
2023-03-26T03:32:27.920Z,75.77
2023-03-26T03:42:27.920Z,75.87
2023-03-26T03:52:28.140Z,74.50
2023-03-26T04:02:28.395Z,74.12
2023-03-26T04:12:28.592Z,74.02
2023-03-26T04:22:28.789Z,72.44
2023-03-26T04:32:29.002Z,72.44
2023-03-26T04:42:29.180Z,73.98
2023-03-26T04:52:29.379Z,73.71
2023-03-26T05:02:29.616Z,72.54
2023-03-26T05:12:29.817Z,71.61
2023-03-26T05:22:29.959Z,71.17
2023-03-26T05:32:30.271Z,69.38
2023-03-26T05:42:30.272Z,69.83
2023-03-26T05:52:30.479Z,71.92
2023-03-26T06:02:30.751Z,71.17
2023-03-26T06:12:30.885Z,70.31
2023-03-26T06:22:31.123Z,72.41
2023-03-26T06:32:31.358Z,71.24
2023-03-26T06:43:06.558Z,69.97
2023-03-26T06:52:32.847Z,68.84
2023-03-26T07:02:32.062Z,68.02
2023-03-26T07:12:32.245Z,69.32
2023-03-26T07:22:32.490Z,65.38
2023-03-26T07:32:32.770Z,65.48
2023-03-26T07:42:32.954Z,71.34
2023-03-26T07:52:33.152Z,66.31
2023-03-26T08:02:33.425Z,72.58
2023-03-26T08:12:33.678Z,76.86
2023-03-26T08:22:33.865Z,81.63
2023-03-26T08:32:34.076Z,84.14
2023-03-26T08:42:34.284Z,80.37
2023-03-26T08:52:34.467Z,83.42
2023-03-26T09:02:34.710Z,85.83
2023-03-26T09:12:34.903Z,84.66
2023-03-26T09:22:35.105Z,83.76
2023-03-26T09:32:35.305Z,80.60
2023-03-26T09:42:35.509Z,80.15
2023-03-26T09:52:35.712Z,82.24
2023-03-26T10:02:45.808Z,85.06
2023-03-26T10:12:37.159Z,83.54
2023-03-26T10:22:36.357Z,82.47
2023-03-26T10:32:36.620Z,80.73
2023-03-26T10:42:36.801Z,81.55
2023-03-26T10:52:36.998Z,80.90
2023-03-26T11:02:37.289Z,80.21
2023-03-26T11:12:37.484Z,79.86
2023-03-26T11:22:37.696Z,77.67
2023-03-26T11:32:37.988Z,75.79
2023-03-26T11:42:38.133Z,75.24
2023-03-26T11:52:38.365Z,73.81
2023-03-26T12:02:38.746Z,72.89
2023-03-26T12:12:38.799Z,70.47
2023-03-26T12:22:39.280Z,70.57
2023-03-26T12:32:46.211Z,70.64
2023-03-26T12:44:54.974Z,64.99
2023-03-26T12:52:40.518Z,69.38
2023-03-26T13:02:39.847Z,67.00
2023-03-26T13:12:40.013Z,61.79
2023-03-26T13:22:40.150Z,62.37
2023-03-26T13:32:40.217Z,63.49
2023-03-26T13:42:40.423Z,59.80
2023-03-26T13:52:40.854Z,58.16
2023-03-26T14:02:40.983Z,59.69
2023-03-26T14:12:40.817Z,58.23
2023-03-26T14:22:41.028Z,58.23
2023-03-26T14:32:41.273Z,53.98
2023-03-26T14:42:43.490Z,54.90
2023-03-26T14:52:41.635Z,55.41
2023-03-26T15:02:42.121Z,54.00
2023-03-26T15:12:41.978Z,56.81
2023-03-26T15:22:42.187Z,61.40
2023-03-26T15:32:42.411Z,59.08
2023-03-26T15:42:42.589Z,63.66
2023-03-26T15:52:43.054Z,72.17
2023-03-26T16:02:43.919Z,62.87
2023-03-26T16:12:43.101Z,57.38
2023-03-26T16:22:43.783Z,59.41
2023-03-26T16:32:43.576Z,69.74
2023-03-26T16:42:43.862Z,66.94
2023-03-26T16:52:43.931Z,61.30
2023-03-26T17:02:44.258Z,62.51
2023-03-26T17:12:45.092Z,58.40
2023-03-26T17:22:44.581Z,67.59
2023-03-26T17:32:44.901Z,74.08
2023-03-26T17:42:46.033Z,78.11
2023-03-26T17:52:45.138Z,76.87
2023-03-26T18:02:45.459Z,77.49
2023-03-26T18:12:46.656Z,73.91
2023-03-26T18:22:45.499Z,75.67
2023-03-26T18:32:45.725Z,74.53
2023-03-26T18:42:45.906Z,74.63
2023-03-26T18:52:46.136Z,69.83
2023-03-26T19:02:48.417Z,69.83
2023-03-26T19:12:48.467Z,65.86
2023-03-26T19:22:46.711Z,68.25
2023-03-26T19:32:46.948Z,66.61
2023-03-26T19:42:47.152Z,72.88
2023-03-26T19:52:47.341Z,80.44
2023-03-26T20:02:47.398Z,80.69
2023-03-26T20:12:48.354Z,81.72
2023-03-26T20:22:47.716Z,80.21
2023-03-26T20:32:49.534Z,82.21
2023-03-26T20:42:49.066Z,82.28
2023-03-26T20:52:47.949Z,80.21
2023-03-26T21:02:48.256Z,79.76
2023-03-26T21:12:48.240Z,77.04
2023-03-26T21:22:48.431Z,77.56
2023-03-26T21:32:48.774Z,80.62
2023-03-26T21:42:48.755Z,82.38
2023-03-26T21:52:48.951Z,81.35
2023-03-26T22:02:49.169Z,82.17
2023-03-26T22:12:49.348Z,80.32
2023-03-26T22:22:49.532Z,82.69
2023-03-26T22:32:49.758Z,85.52
2023-03-26T22:42:49.928Z,85.62
2023-03-26T22:52:50.328Z,87.10
2023-03-26T23:02:50.367Z,89.17
2023-03-26T23:12:50.525Z,87.21
2023-03-26T23:22:50.728Z,89.52
2023-03-26T23:32:50.940Z,88.28
2023-03-26T23:42:51.106Z,86.73
2023-03-26T23:52:51.311Z,88.59
